Time;durP1;ratioP1;P1;durP2;ratioP2;P2;SDS_P1;SDS_P2;PMS_P1;PMS_P2;Temp;Humidity;BMP_temperature;BMP_pressure;BME280_temperature;BME280_humidity;BME280_pressure;Samples;Min_cycle;Max_cycle;Signal;HPM_P1;HPM_P2
2022/08/25 00:00:26;;;;;;;30.38;24.30;;;;;;;22.13;67.63;101825.50;5124749;28;20046;-46
2022/08/25 00:02:58;;;;;;;27.92;25.05;;;;;;;22.09;67.43;101825.91;5127698;28;20076;-43
2022/08/25 00:05:31;;;;;;;30.17;26.95;;;;;;;22.12;67.64;101829.25;5124920;28;20481;-47
2022/08/25 00:08:07;;;;;;;32.22;27.30;;;;;;;22.01;67.72;101812.63;5131594;28;20486;-47
2022/08/25 00:10:41;;;;;;;31.35;25.70;;;;;;;21.96;67.87;101804.34;5132984;28;20038;-40
2022/08/25 00:13:14;;;;;;;34.53;27.30;;;;;;;21.95;67.95;101802.69;5131837;28;20042;-45
2022/08/25 00:15:47;;;;;;;35.03;27.08;;;;;;;21.96;67.84;101811.59;5136687;28;20050;-45
2022/08/25 00:18:19;;;;;;;;;;;;;;;21.97;68.00;101806.00;5127752;28;21332;-44
2022/08/25 00:20:52;;;;;;;34.17;25.75;;;;;;;21.94;67.95;101810.97;5110221;28;19960;-42
2022/08/25 00:23:46;;;;;;;29.70;24.85;;;;;;;21.94;67.74;101800.19;5124637;28;20049;-52
2022/08/25 00:26:19;;;;;;;31.50;28.13;;;;;;;21.97;67.66;101816.75;5123059;28;20486;-42
2022/08/25 00:28:53;;;;;;;42.70;30.48;;;;;;;21.86;67.75;101801.19;5125126;28;20343;-42
2022/08/25 00:31:26;;;;;;;29.77;26.55;;;;;;;21.92;67.67;101808.47;5121644;28;20069;-44
2022/08/25 00:33:59;;;;;;;33.97;30.25;;;;;;;21.89;67.83;101798.09;5127818;28;20599;-43
2022/08/25 00:36:31;;;;;;;;;;;;;;;21.91;67.79;101797.91;5129129;28;20077;-44
2022/08/25 00:39:07;;;;;;;28.70;25.60;;;;;;;21.90;67.54;101805.16;5129903;28;20403;-41
2022/08/25 00:41:42;;;;;;;31.85;25.40;;;;;;;21.90;67.47;101794.41;5131330;28;20042;-40
2022/08/25 00:44:17;;;;;;;34.58;28.80;;;;;;;21.84;67.38;101789.81;5124876;28;20205;-44
2022/08/25 00:46:53;;;;;;;32.83;29.27;;;;;;;21.81;67.30;101791.06;5100318;28;20483;-43
2022/08/25 00:49:30;;;;;;;31.90;27.67;;;;;;;21.78;67.29;101790.63;5126457;28;20084;-50
2022/08/25 00:52:08;;;;;;;36.08;30.38;;;;;;;21.78;67.21;101787.94;5128373;28;20073;-42
2022/08/25 00:54:49;;;;;;;33.78;28.92;;;;;;;21.82;67.45;101797.25;5132200;28;20061;-44
2022/08/25 00:57:28;;;;;;;37.47;30.67;;;;;;;21.71;67.53;101789.75;5136893;28;20398;-44
2022/08/25 01:00:03;;;;;;;35.22;30.85;;;;;;;21.76;67.46;101784.63;5127598;28;20141;-41
2022/08/25 01:02:35;;;;;;;35.20;31.38;;;;;;;21.75;67.59;101785.66;5121667;28;20179;-41
2022/08/25 01:05:09;;;;;;;38.63;32.70;;;;;;;21.69;67.57;101775.69;5139426;28;20513;-44
2022/08/25 01:07:44;;;;;;;36.15;31.92;;;;;;;21.73;67.51;101783.16;5126352;28;20041;-47
2022/08/25 01:10:18;;;;;;;50.15;32.67;;;;;;;21.74;67.54;101789.34;5126997;28;20429;-40
2022/08/25 01:13:13;;;;;;;34.30;28.77;;;;;;;21.79;67.52;101792.28;5131530;28;20409;-40
2022/08/25 01:15:48;;;;;;;32.63;27.52;;;;;;;21.78;67.32;101785.25;5135248;28;20046;-46
2022/08/25 01:18:22;;;;;;;43.05;30.50;;;;;;;21.80;67.46;101785.84;5131719;28;20054;-41
2022/08/25 01:20:58;;;;;;;42.83;33.03;;;;;;;21.75;67.50;101774.91;5133180;28;20127;-43
2022/08/25 01:23:31;;;;;;;39.63;33.05;;;;;;;21.75;67.41;101783.78;5122026;28;20038;-43
2022/08/25 01:26:09;;;;;;;37.28;32.08;;;;;;;21.76;67.81;101779.22;5129705;28;20401;-44
2022/08/25 01:31:32;;;;;;;35.65;31.27;;;;;;;21.71;67.80;101779.00;5119805;28;20267;-44
2022/08/25 01:37:59;;;;;;;44.28;34.33;;;;;;;21.61;68.43;101769.44;5131675;28;20050;-41
2022/08/25 01:40:36;;;;;;;40.13;34.47;;;;;;;21.47;68.50;101757.00;5123489;28;20463;-43
2022/08/25 01:43:17;;;;;;;40.90;33.50;;;;;;;21.54;68.83;101768.59;5124016;28;20049;-45
2022/08/25 01:45:50;;;;;;;45.72;36.65;;;;;;;21.50;68.72;101761.97;5126636;28;21495;-40
2022/08/25 01:48:23;;;;;;;48.47;35.88;;;;;;;21.54;68.57;101768.59;5123326;28;20060;-42
2022/08/25 01:50:56;;;;;;;41.20;34.75;;;;;;;21.48;68.59;101750.59;5108004;28;20561;-46
2022/08/25 01:53:32;;;;;;;48.92;37.55;;;;;;;21.53;68.67;101756.19;5106595;28;20073;-46
2022/08/25 01:56:13;;;;;;;45.53;38.97;;;;;;;21.52;68.56;101749.13;5127876;28;20046;-45
2022/08/25 01:58:49;;;;;;;44.22;38.63;;;;;;;21.50;68.71;101748.53;5125662;28;20058;-44
2022/08/25 02:01:25;;;;;;;47.33;37.20;;;;;;;21.55;68.61;101756.81;5128464;28;20436;-44
2022/08/25 02:03:58;;;;;;;46.67;39.17;;;;;;;21.47;68.44;101746.25;5126903;28;20488;-42
2022/08/25 02:06:34;;;;;;;46.67;37.08;;;;;;;21.51;68.25;101752.88;5096943;28;20438;-41
2022/08/25 02:09:12;;;;;;;43.78;36.00;;;;;;;21.53;68.22;101753.50;5101481;28;20375;-44
2022/08/25 02:11:47;;;;;;;46.83;36.03;;;;;;;21.53;68.19;101752.69;5116606;28;20243;-35
2022/08/25 02:14:20;;;;;;;51.17;40.80;;;;;;;21.44;68.33;101740.44;5125020;28;20375;-41
2022/08/25 02:16:55;;;;;;;52.85;38.35;;;;;;;21.43;68.29;101728.88;5124557;28;20362;-40
2022/08/25 02:19:30;;;;;;;45.45;38.38;;;;;;;21.48;68.33;101753.25;5114052;28;20045;-43
2022/08/25 02:22:03;;;;;;;46.72;37.90;;;;;;;21.40;68.29;101743.53;5122743;28;20057;-40
2022/08/25 02:24:36;;;;;;;44.60;38.83;;;;;;;21.40;68.11;101742.72;5126792;28;20034;-41
2022/08/25 02:27:09;;;;;;;48.65;40.08;;;;;;;21.41;68.22;101737.13;5123822;28;20055;-44
2022/08/25 02:29:42;;;;;;;47.42;36.95;;;;;;;21.37;68.29;101740.41;5136892;28;20041;-46
2022/08/25 02:32:15;;;;;;;39.20;34.97;;;;;;;21.43;68.08;101739.63;5131159;28;20501;-43
2022/08/25 02:34:47;;;;;;;48.53;39.70;;;;;;;21.48;68.16;101744.38;5129876;28;20062;-44
2022/08/25 02:37:20;;;;;;;45.53;37.75;;;;;;;21.37;68.08;101724.28;5122519;28;20897;-44
2022/08/25 02:39:54;;;;;;;47.92;41.60;;;;;;;21.44;68.13;101737.75;5121303;28;20132;-43
2022/08/25 02:42:27;;;;;;;47.88;39.80;;;;;;;21.44;67.97;101740.44;5128444;28;20049;-43
2022/08/25 02:45:00;;;;;;;;;;;;;;;21.42;68.17;101732.56;5124744;28;20406;-40
2022/08/25 02:47:32;;;;;;;51.00;42.90;;;;;;;21.40;68.29;101729.28;5126259;28;20309;-41
2022/08/25 02:50:06;;;;;;;47.35;38.13;;;;;;;21.30;68.12;101720.69;5134908;28;20034;-46
2022/08/25 02:52:39;;;;;;;46.72;38.00;;;;;;;21.34;68.16;101730.03;5127609;28;20402;-44
2022/08/25 02:55:14;;;;;;;50.97;38.67;;;;;;;21.34;68.28;101720.09;5123776;28;20092;-41
2022/08/25 02:57:47;;;;;;;49.10;39.05;;;;;;;21.32;68.52;101714.09;5135117;28;20413;-43
2022/08/25 03:00:20;;;;;;;51.67;41.90;;;;;;;21.28;68.50;101703.97;5122469;28;21775;-43
2022/08/25 03:03:18;;;;;;;45.10;37.45;;;;;;;21.34;68.43;101713.91;5125477;28;20069;-42
2022/08/25 03:05:51;;;;;;;40.72;33.65;;;;;;;21.29;68.51;101705.59;5122639;28;20104;-41
2022/08/25 03:12:11;;;;;;;39.72;33.38;;;;;;;21.31;68.48;101703.56;5125939;28;20425;-40
2022/08/25 03:14:44;;;;;;;47.47;34.35;;;;;;;21.26;68.27;101701.47;5130251;28;20418;-42
2022/08/25 03:17:17;;;;;;;41.88;35.30;;;;;;;21.32;68.46;101707.91;5120523;28;20279;-40
2022/08/25 03:19:49;;;;;;;43.80;34.40;;;;;;;21.32;68.52;101705.22;5127594;28;20053;-45
2022/08/25 03:22:22;;;;;;;38.38;33.63;;;;;;;21.26;68.31;101701.47;5122015;28;20394;-40
2022/08/25 03:26:52;;;;;;;36.75;31.80;;;;;;;21.22;68.53;101694.84;5127884;28;20053;-46
2022/08/25 03:27:48;;;;;;;35.17;30.33;;;;;;;21.27;68.66;101691.53;5120003;28;20458;-43
2022/08/25 03:30:21;;;;;;;35.25;31.55;;;;;;;21.30;68.39;101691.97;5125363;28;20050;-42
2022/08/25 03:32:54;;;;;;;36.00;29.27;;;;;;;21.27;68.25;101686.16;5127055;28;20038;-45
2022/08/25 03:35:26;;;;;;;32.38;26.95;;;;;;;21.27;68.28;101678.94;5125525;28;20417;-42
2022/08/25 03:38:06;;;;;;;28.98;25.38;;;;;;;21.22;68.12;101667.97;5129893;28;20090;-43
2022/08/25 03:40:39;;;;;;;31.25;27.42;;;;;;;21.28;68.22;101677.09;5126345;28;20034;-46
2022/08/25 03:43:13;;;;;;;31.63;27.65;;;;;;;21.30;68.04;101685.75;5137008;28;20046;-40
2022/08/25 03:45:46;;;;;;;31.85;28.58;;;;;;;21.29;67.96;101676.06;5141461;28;20409;-43
2022/08/25 03:48:19;;;;;;;29.90;26.73;;;;;;;21.26;68.01;101674.59;5132285;28;20045;-43
2022/08/25 03:50:55;;;;;;;31.10;27.88;;;;;;;21.23;68.08;101663.41;5130031;28;20370;-38
2022/08/25 03:53:28;;;;;;;31.25;27.25;;;;;;;21.17;68.08;101665.88;5129226;28;20665;-42
2022/08/25 03:56:01;;;;;;;32.40;24.88;;;;;;;21.10;68.18;101656.13;5120786;28;20046;-42
2022/08/25 03:58:35;;;;;;;31.25;25.73;;;;;;;21.15;68.08;101662.56;5133832;28;20434;-46
2022/08/25 04:01:08;;;;;;;27.10;24.20;;;;;;;21.12;68.06;101668.34;5120621;28;20054;-48
2022/08/25 04:03:40;;;;;;;27.42;23.58;;;;;;;21.16;68.15;101664.22;5119397;28;20043;-41
2022/08/25 04:06:15;;;;;;;35.30;24.75;;;;;;;21.16;68.15;101664.22;5141751;28;20038;-43
2022/08/25 04:08:51;;;;;;;28.17;23.77;;;;;;;21.16;67.99;101663.41;5130877;28;20050;-45
2022/08/25 04:11:28;;;;;;;30.10;23.88;;;;;;;21.12;68.07;101652.22;5126388;28;20134;-42
2022/08/25 04:14:03;;;;;;;24.35;21.65;;;;;;;21.08;68.21;101642.88;5123042;28;20038;-34
2022/08/25 04:16:36;;;;;;;27.70;23.17;;;;;;;21.03;67.99;101637.31;5111400;28;20108;-39
2022/08/25 04:19:09;;;;;;;24.10;21.45;;;;;;;21.06;67.92;101636.91;5127053;28;20050;-42
2022/08/25 04:21:43;;;;;;;24.95;21.58;;;;;;;21.02;67.98;101635.63;5129555;28;20058;-43
2022/08/25 04:24:15;;;;;;;;;;;;;;;21.09;67.88;101638.34;5130806;28;20046;-41
2022/08/25 04:26:51;;;;;;;26.48;22.95;;;;;;;21.06;68.06;101642.28;5130277;28;20261;-39
2022/08/25 04:29:26;;;;;;;24.55;20.33;;;;;;;21.03;68.09;101642.69;5124529;28;20394;-42
2022/08/25 04:31:59;;;;;;;26.55;20.70;;;;;;;21.05;67.87;101640.59;5101365;28;20042;-42
2022/08/25 04:34:32;;;;;;;23.67;16.88;;;;;;;21.04;67.79;101630.91;5113044;28;20042;-44
2022/08/25 04:37:06;;;;;;;20.85;15.75;;;;;;;21.08;67.74;101628.63;5130646;28;20068;-44
2022/08/25 04:39:39;;;;;;;20.85;16.83;;;;;;;21.12;67.68;101636.13;5117615;28;20045;-40
2022/08/25 04:42:11;;;;;;;32.83;15.13;;;;;;;21.06;67.70;101620.78;5131100;28;20073;-42
2022/08/25 04:44:46;;;;;;;15.00;13.48;;;;;;;21.19;67.34;101636.97;5117701;28;20411;-39
2022/08/25 04:47:18;;;;;;;25.02;14.00;;;;;;;21.21;67.41;101630.53;5127802;28;20092;-45
2022/08/25 04:49:51;;;;;;;15.43;12.57;;;;;;;21.22;67.14;101635.72;5119041;28;20057;-43
2022/08/25 04:52:23;;;;;;;15.18;12.10;;;;;;;21.29;67.05;101641.13;5120585;28;20058;-42
2022/08/25 04:55:22;;;;;;;16.17;10.73;;;;;;;21.37;66.75;101638.31;5131681;28;20042;-40
2022/08/25 04:57:55;;;;;;;29.30;12.32;;;;;;;21.31;66.70;101626.47;5135936;28;20473;-42
2022/08/25 05:00:29;;;;;;;;;;;;;;;21.47;66.56;101638.75;5115612;28;20049;-40
2022/08/25 05:03:02;;;;;;;15.93;10.45;;;;;;;21.42;66.21;101619.69;5120614;28;19921;-43
2022/08/25 05:05:37;;;;;;;16.75;9.48;;;;;;;21.55;66.01;101630.47;5119460;28;20057;-42
2022/08/25 05:11:56;;;;;;;14.60;8.55;;;;;;;21.71;65.55;101649.94;5135391;28;20133;-40
2022/08/25 05:14:29;;;;;;;13.48;9.23;;;;;;;21.82;65.35;101652.03;5121352;28;20493;-43
2022/08/25 05:17:03;;;;;;;16.67;8.55;;;;;;;21.90;65.07;101654.56;5120764;28;20429;-44
2022/08/25 05:19:36;;;;;;;11.63;8.32;;;;;;;21.88;65.00;101635.09;5129793;28;20046;-43
2022/08/25 05:22:09;;;;;;;13.23;9.35;;;;;;;21.91;64.77;101640.06;5123712;28;20097;-47
2022/08/25 05:24:42;;;;;;;15.50;8.95;;;;;;;21.96;64.59;101636.78;5110998;28;20387;-40
2022/08/25 05:27:15;;;;;;;17.45;10.25;;;;;;;22.02;64.61;101646.69;5118607;28;20064;-41
2022/08/25 05:29:47;;;;;;;;;;;;;;;22.05;64.24;101641.75;5114495;28;20073;-38
2022/08/25 05:32:22;;;;;;;15.13;8.02;;;;;;;22.13;64.24;101627.25;5127359;28;19929;-45
2022/08/25 05:34:55;;;;;;;17.20;8.75;;;;;;;22.25;64.07;101647.16;5111906;28;20483;-40
2022/08/25 05:37:28;;;;;;;13.35;7.78;;;;;;;22.28;63.69;101645.91;5122442;28;20046;-42
2022/08/25 05:40:01;;;;;;;15.75;8.25;;;;;;;22.24;63.58;101645.50;5127578;28;20493;-40
2022/08/25 05:42:34;;;;;;;11.15;6.90;;;;;;;22.32;63.56;101647.13;5129397;28;20045;-40
2022/08/25 05:45:08;;;;;;;12.07;7.97;;;;;;;22.44;63.37;101655.41;5126923;28;20041;-43
2022/08/25 05:47:43;;;;;;;7.72;6.70;;;;;;;22.49;63.07;101643.00;5136263;28;20069;-45
2022/08/25 05:50:15;;;;;;;11.65;7.53;;;;;;;22.70;62.91;101654.53;5135002;28;20382;-43
2022/08/25 05:52:48;;;;;;;16.33;6.35;;;;;;;22.76;62.65;101649.16;5128990;28;20050;-36
2022/08/25 05:55:22;;;;;;;11.80;6.28;;;;;;;22.79;62.47;101639.81;5102519;28;20517;-38
2022/08/25 05:57:55;;;;;;;9.73;5.30;;;;;;;22.91;62.24;101638.13;5127344;28;20045;-40
2022/08/25 06:00:28;;;;;;;7.72;5.20;;;;;;;23.11;61.79;101648.06;5127409;28;20056;-41
2022/08/25 06:03:01;;;;;;;12.27;5.32;;;;;;;23.30;61.32;101655.22;5128404;28;20046;-35
2022/08/25 06:05:35;;;;;;;9.57;5.18;;;;;;;23.39;60.85;101653.94;5123996;28;20050;-42
2022/08/25 06:08:08;;;;;;;8.25;4.43;;;;;;;23.53;60.76;101660.06;5126149;28;20045;-40
2022/08/25 06:10:41;;;;;;;12.20;4.63;;;;;;;23.67;59.98;101644.66;5129492;28;20097;-41
2022/08/25 06:13:14;;;;;;;14.10;5.20;;;;;;;24.15;59.41;101644.94;5127354;28;20065;-41
2022/08/25 06:15:46;;;;;;;13.52;4.68;;;;;;;24.94;58.36;101641.72;5117245;28;20513;-43
2022/08/25 06:18:21;;;;;;;5.05;3.85;;;;;;;26.09;55.99;101643.47;5121761;28;20041;-41
2022/08/25 06:21:47;;;;;;;8.80;4.50;;;;;;;27.27;54.84;101652.34;5161555;28;20057;-40
2022/08/25 06:28:06;;;;;;;13.10;4.40;;;;;;;28.53;52.24;101643.13;5153901;28;20341;-39
2022/08/25 06:30:39;;;;;;;8.50;3.85;;;;;;;28.82;51.56;101636.44;5131906;28;20406;-42
2022/08/25 06:33:13;;;;;;;12.85;4.13;;;;;;;29.41;50.45;101642.03;5133417;28;20046;-41
2022/08/25 06:35:47;;;;;;;10.57;3.72;;;;;;;30.44;49.07;101642.91;5131836;28;20061;-43
2022/08/25 06:38:20;;;;;;;8.98;3.72;;;;;;;31.42;46.89;101639.56;5138442;28;20576;-42
2022/08/25 06:40:53;;;;;;;10.57;3.45;;;;;;;32.55;45.61;101635.72;5139645;28;20058;-42
2022/08/25 06:43:26;;;;;;;15.90;4.28;;;;;;;33.78;43.64;101635.03;5150517;28;20409;-41
2022/08/25 06:45:59;;;;;;;10.45;3.60;;;;;;;34.51;41.99;101630.53;5140909;28;20429;-44
2022/08/25 06:48:33;;;;;;;10.45;3.30;;;;;;;34.81;40.98;101635.66;5121917;28;20486;-39
2022/08/25 06:51:12;;;;;;;10.30;3.33;;;;;;;35.09;40.20;101644.94;5131863;28;20054;-46
2022/08/25 06:53:46;;;;;;;12.73;3.28;;;;;;;35.67;39.21;101635.53;5136384;28;20283;-42
2022/08/25 06:56:21;;;;;;;8.43;3.60;;;;;;;36.27;37.10;101637.56;5142088;28;20394;-43
2022/08/25 06:58:55;;;;;;;11.77;2.95;;;;;;;36.98;35.83;101646.31;5134371;28;20129;-44
2022/08/25 07:01:28;;;;;;;10.70;3.33;;;;;;;37.48;34.69;101627.00;5122329;28;20356;-43
2022/08/25 07:04:03;;;;;;;10.10;3.97;;;;;;;38.04;33.46;101650.41;5130484;28;20042;-41
2022/08/25 07:06:38;;;;;;;8.65;3.45;;;;;;;38.39;33.03;101634.03;5141743;28;20478;-45
2022/08/25 07:09:11;;;;;;;10.20;3.70;;;;;;;38.69;31.26;101637.06;5136421;28;20053;-44
2022/08/25 07:11:45;;;;;;;7.47;3.47;;;;;;;38.61;31.16;101629.56;5139575;28;20069;-49
2022/08/25 07:14:19;;;;;;;15.32;3.55;;;;;;;39.14;30.63;101631.28;5142311;28;20038;-42
2022/08/25 07:16:52;;;;;;;13.40;2.95;;;;;;;39.74;30.20;101633.22;5142386;28;20057;-49
2022/08/25 07:19:24;;;;;;;9.90;3.45;;;;;;;40.05;29.35;101640.47;5136243;28;20041;-45
2022/08/25 07:21:58;;;;;;;9.65;2.67;;;;;;;40.51;29.09;101628.56;5135192;28;20037;-43
2022/08/25 07:24:31;;;;;;;7.00;3.38;;;;;;;40.89;27.96;101632.41;5126429;28;20050;-41
2022/08/25 07:27:04;;;;;;;10.38;2.83;;;;;;;40.90;27.79;101625.69;5128925;28;20054;-44
2022/08/25 07:29:38;;;;;;;6.30;2.58;;;;;;;40.56;27.10;101624.75;5129918;28;20061;-44
2022/08/25 07:32:10;;;;;;;5.78;2.63;;;;;;;39.76;28.10;101628.16;5136239;28;20050;-45
2022/08/25 07:37:37;;;;;;;11.05;2.97;;;;;;;37.58;29.45;101631.47;5130807;28;20088;-44
2022/08/25 07:40:13;;;;;;;7.55;3.42;;;;;;;36.74;30.42;101626.47;5135587;28;20116;-44
2022/08/25 07:42:46;;;;;;;15.80;3.58;;;;;;;36.82;29.93;101633.97;5135684;28;20076;-44
2022/08/25 07:45:20;;;;;;;7.47;2.72;;;;;;;37.28;29.77;101635.72;5135212;28;20042;-47
2022/08/25 07:47:53;;;;;;;8.52;2.95;;;;;;;37.86;29.20;101625.78;5131829;28;20395;-43
2022/08/25 07:50:28;;;;;;;10.50;2.80;;;;;;;38.39;28.43;101628.50;5130233;28;20053;-44
2022/08/25 07:53:02;;;;;;;9.13;2.45;;;;;;;38.64;27.54;101613.16;5134808;28;20073;-44
2022/08/25 07:55:36;;;;;;;9.93;3.05;;;;;;;39.00;27.49;101611.31;5128404;28;20164;-43
2022/08/25 07:58:10;;;;;;;8.60;2.67;;;;;;;39.42;27.06;101610.47;5131651;28;20131;-48
2022/08/25 08:00:43;;;;;;;5.05;2.72;;;;;;;39.91;26.27;101621.28;5137839;28;20466;-44
2022/08/25 08:03:16;;;;;;;10.60;2.90;;;;;;;40.02;25.94;101619.00;5133326;28;20580;-48
2022/08/25 08:05:49;;;;;;;8.98;2.10;;;;;;;40.47;25.85;101626.78;5140422;28;20398;-46
2022/08/25 08:08:23;;;;;;;6.88;2.90;;;;;;;40.46;25.36;101620.44;5140524;28;20564;-47
2022/08/25 08:10:56;;;;;;;15.82;3.13;;;;;;;40.70;25.22;101614.28;5139122;28;20080;-49
2022/08/25 08:13:29;;;;;;;7.72;2.78;;;;;;;41.11;24.93;101618.22;5134287;28;20049;-47
2022/08/25 08:16:02;;;;;;;9.57;3.25;;;;;;;41.51;24.63;101614.94;5149625;28;20128;-39
2022/08/25 08:18:34;;;;;;;16.48;3.40;;;;;;;41.77;24.71;101613.84;5136937;28;20433;-48
2022/08/25 08:21:12;;;;;;;11.35;2.85;;;;;;;41.75;24.83;101605.06;5108704;28;20376;-48
2022/08/25 08:23:48;;;;;;;12.23;2.90;;;;;;;41.80;24.64;101599.28;5132259;28;20112;-45
2022/08/25 08:26:20;;;;;;;8.45;2.70;;;;;;;42.09;24.52;101604.69;5135481;28;20449;-47
2022/08/25 08:28:53;;;;;;;7.22;2.55;;;;;;;42.21;24.30;101603.03;5126070;28;20046;-46
2022/08/25 08:31:28;;;;;;;7.93;1.95;;;;;;;41.93;24.68;101606.50;5132359;28;20092;-49
2022/08/25 08:34:01;;;;;;;19.73;3.00;;;;;;;41.40;24.72;101606.22;5123854;28;20044;-50
2022/08/25 08:36:33;;;;;;;12.80;2.72;;;;;;;41.07;25.07;101611.75;5134372;28;20351;-47
2022/08/25 08:39:25;;;;;;;12.57;2.58;;;;;;;41.09;24.86;101598.34;5132024;28;20038;-47
2022/08/25 08:42:17;;;;;;;15.15;2.20;;;;;;;40.72;24.56;101592.59;5134614;28;20071;-46
2022/08/25 08:45:29;;;;;;;14.35;2.85;;;;;;;40.60;24.88;101598.03;5133148;28;20441;-48
2022/08/25 08:48:44;;;;;;;11.82;2.40;;;;;;;40.59;24.12;101596.41;5127656;28;20068;-46
2022/08/25 08:51:23;;;;;;;5.93;2.30;;;;;;;40.07;24.72;101597.47;5134658;28;20042;-44
2022/08/25 08:54:00;;;;;;;10.02;2.35;;;;;;;39.96;24.45;101585.16;5147419;28;20458;-51
2022/08/25 08:56:39;;;;;;;14.05;2.58;;;;;;;39.70;24.59;101599.03;5137170;28;20168;-49
2022/08/25 08:59:18;;;;;;;9.73;2.55;;;;;;;39.52;24.46;101592.75;5133407;28;20050;-47
2022/08/25 09:01:57;;;;;;;9.07;2.40;;;;;;;39.52;24.41;101586.38;5134622;28;22513;-45
2022/08/25 09:04:36;;;;;;;11.70;2.65;;;;;;;39.65;24.71;101602.00;5135036;28;20474;-49
2022/08/25 09:07:16;;;;;;;8.30;2.42;;;;;;;39.61;24.86;101581.66;5130520;28;20046;-47
2022/08/25 09:09:49;;;;;;;3.92;2.33;;;;;;;39.39;25.03;101589.00;5134197;28;20427;-46
2022/08/25 09:12:32;;;;;;;4.78;2.60;;;;;;;38.91;25.24;101605.75;5135704;28;20116;-49
2022/08/25 09:16:53;;;;;;;11.05;1.95;;;;;;;38.24;25.94;101598.56;5128711;28;20041;-46
2022/08/25 09:18:27;;;;;;;13.13;2.67;;;;;;;37.25;27.23;101589.53;5132437;28;20132;-44
2022/08/25 09:21:12;;;;;;;12.80;2.72;;;;;;;36.55;28.14;101596.31;5133879;28;20466;-43
2022/08/25 09:24:09;;;;;;;9.07;2.08;;;;;;;36.15;28.65;101594.03;5133708;28;20065;-48
2022/08/25 09:26:53;;;;;;;11.45;2.42;;;;;;;35.68;29.67;101586.91;5127443;28;20061;-48
2022/08/25 09:29:40;;;;;;;12.63;3.50;;;;;;;35.18;29.57;101583.84;5127142;28;20056;-48
2022/08/25 09:32:13;;;;;;;18.65;2.50;;;;;;;34.87;30.46;101590.59;5124049;28;20104;-45
2022/08/25 09:34:49;;;;;;;12.80;3.17;;;;;;;34.83;30.62;101584.03;5133214;28;20124;-47
2022/08/25 09:37:24;;;;;;;5.68;2.60;;;;;;;34.83;30.56;101584.03;5128115;28;20053;-45
2022/08/25 09:39:57;;;;;;;9.85;2.42;;;;;;;34.71;30.83;101575.41;5128007;28;20695;-47
2022/08/25 09:46:28;;;;;;;6.85;2.88;;;;;;;34.52;30.29;101569.06;5127743;28;20509;-45
2022/08/25 09:49:15;;;;;;;7.13;2.45;;;;;;;34.47;30.47;101569.97;5127910;28;20050;-45
2022/08/25 09:51:48;;;;;;;6.00;2.60;;;;;;;34.61;30.22;101559.91;5119505;28;20072;-41
2022/08/25 09:54:24;;;;;;;12.90;3.05;;;;;;;34.71;30.99;101561.69;5129692;28;20165;-43
2022/08/25 09:57:00;;;;;;;14.63;3.03;;;;;;;34.93;30.91;101557.56;5142830;28;20048;-49
2022/08/25 09:59:36;;;;;;;6.85;2.60;;;;;;;35.02;30.92;101569.50;5133845;28;20437;-52
2022/08/25 10:02:25;;;;;;;8.05;2.90;;;;;;;35.02;31.01;101558.53;5133149;28;20481;-44
2022/08/25 10:04:58;;;;;;;7.38;2.38;;;;;;;35.09;30.83;101559.81;5132067;28;20344;-39
2022/08/25 10:07:36;;;;;;;10.13;3.00;;;;;;;35.05;31.23;101553.28;5134464;28;20689;-46
2022/08/25 10:10:24;;;;;;;5.55;2.40;;;;;;;35.09;30.22;101553.50;5129826;28;20210;-47
2022/08/25 10:12:59;;;;;;;10.05;2.70;;;;;;;35.16;30.32;101545.72;5126354;28;20042;-44
2022/08/25 10:15:35;;;;;;;4.57;2.70;;;;;;;35.20;30.53;101544.00;5132139;28;20042;-46
2022/08/25 10:18:25;;;;;;;4.47;2.78;;;;;;;35.27;30.36;101549.91;5126159;28;20069;-44
2022/08/25 10:21:12;;;;;;;5.22;2.45;;;;;;;35.19;30.35;101542.38;5131312;28;20056;-50
2022/08/25 10:23:51;;;;;;;6.75;2.80;;;;;;;35.16;30.94;101553.94;5124468;28;20053;-50
2022/08/25 10:26:36;;;;;;;15.38;3.03;;;;;;;35.22;30.10;101536.28;5117320;28;20730;-48
2022/08/25 10:29:30;;;;;;;9.60;2.92;;;;;;;35.11;29.15;101537.53;5117424;28;20096;-48
2022/08/25 10:32:10;;;;;;;9.60;2.92;;;;;;;35.15;30.33;101552.28;5124939;28;20490;-47
2022/08/25 10:34:48;;;;;;;3.90;2.50;;;;;;;34.98;29.94;101532.78;5133342;28;20128;-49
2022/08/25 10:37:35;;;;;;;10.75;2.45;;;;;;;34.83;30.67;101531.88;5131004;28;22831;-46
2022/08/25 10:40:18;;;;;;;5.88;2.53;;;;;;;34.95;30.01;101522.41;5132700;28;20053;-49
2022/08/25 10:43:06;;;;;;;8.00;2.63;;;;;;;35.00;28.91;101528.63;5133682;28;20092;-46
2022/08/25 10:45:42;;;;;;;7.20;2.60;;;;;;;34.99;29.05;101526.19;5131177;28;20073;-49
2022/08/25 10:48:58;;;;;;;6.57;2.20;;;;;;;35.02;28.68;101509.91;5132636;28;20366;-50
2022/08/25 10:51:49;;;;;;;6.30;2.30;;;;;;;34.85;28.25;101502.22;5130594;28;20037;-49
2022/08/25 10:54:38;;;;;;;12.30;2.65;;;;;;;35.02;28.96;101498.13;5121644;28;20411;-49
2022/08/25 10:57:20;;;;;;;4.13;2.15;;;;;;;35.20;29.13;101500.06;5127955;28;20041;-49
2022/08/25 11:00:02;;;;;;;6.50;2.90;;;;;;;35.45;28.85;101514.47;5123090;28;20375;-48
2022/08/25 11:03:04;;;;;;;5.03;1.85;;;;;;;35.58;28.81;101486.22;5126207;28;20308;-48
2022/08/25 11:05:43;;;;;;;9.13;2.73;;;;;;;35.68;29.00;101491.56;5136112;28;20455;-46
2022/08/25 11:08:31;;;;;;;5.40;2.33;;;;;;;35.73;29.15;101491.44;5137269;28;20061;-49
2022/08/25 11:11:10;;;;;;;7.35;1.90;;;;;;;35.70;28.80;101500.28;5148122;28;20045;-45
2022/08/25 11:13:49;;;;;;;9.25;2.53;;;;;;;35.68;28.71;101487.97;5143816;28;20064;-50
2022/08/25 11:16:34;;;;;;;9.50;2.42;;;;;;;35.74;28.83;101497.75;5128359;28;25544;-45
2022/08/25 11:19:22;;;;;;;9.90;2.22;;;;;;;35.53;28.36;101475.31;5124138;28;20061;-46
2022/08/25 11:22:04;;;;;;;5.88;2.30;;;;;;;35.73;28.35;101491.44;5133370;28;20037;-48
2022/08/25 11:24:57;;;;;;;7.65;2.47;;;;;;;35.90;27.97;101492.78;5135337;28;20437;-44
2022/08/25 11:27:37;;;;;;;9.60;2.40;;;;;;;35.85;28.54;101479.16;5137266;28;20072;-52
2022/08/25 11:30:13;;;;;;;5.05;1.90;;;;;;;35.94;28.46;101496.56;5130275;28;20451;-49
2022/08/25 11:32:49;;;;;;;6.22;2.10;;;;;;;35.89;28.29;101488.41;5137003;28;20058;-50
2022/08/25 11:35:31;;;;;;;5.32;2.67;;;;;;;35.90;28.98;101501.84;5136416;28;20897;-45
2022/08/25 11:38:25;;;;;;;3.20;2.20;;;;;;;35.67;28.80;101489.09;5134250;28;20371;-48
2022/08/25 11:41:11;;;;;;;6.22;2.05;;;;;;;35.56;28.79;101485.75;5136126;28;20053;-42
2022/08/25 11:44:01;;;;;;;5.55;2.35;;;;;;;35.42;29.18;101495.84;5135242;28;20046;-47
2022/08/25 11:46:52;;;;;;;4.47;2.25;;;;;;;35.19;29.34;101492.94;5134269;28;20041;-47
2022/08/25 11:49:51;;;;;;;6.57;2.65;;;;;;;34.85;29.73;101491.25;5140781;28;20038;-48
2022/08/25 11:52:49;;;;;;;5.88;2.45;;;;;;;34.52;30.47;101490.34;5135785;28;20391;-47
2022/08/25 11:55:29;;;;;;;10.77;2.60;;;;;;;34.50;30.60;101491.72;5135877;28;20080;-51
2022/08/25 11:58:32;;;;;;;5.40;2.55;;;;;;;34.52;30.76;101490.34;5132687;28;20111;-45
2022/08/25 12:01:09;;;;;;;11.25;2.92;;;;;;;34.58;30.21;101480.94;5129709;28;20053;-47
2022/08/25 12:04:13;;;;;;;5.93;2.58;;;;;;;34.70;30.67;101483.25;5143976;28;20048;-47
2022/08/25 12:07:23;;;;;;;13.18;2.95;;;;;;;34.97;29.87;101479.00;5140830;28;20061;-46
2022/08/25 12:10:21;;;;;;;8.07;2.50;;;;;;;35.17;29.38;101455.91;5145613;28;20391;-45
2022/08/25 12:13:41;;;;;;;9.00;2.30;;;;;;;35.42;29.38;101480.19;5144423;28;20042;-46
2022/08/25 12:16:40;;;;;;;4.55;3.17;;;;;;;35.43;29.58;101464.50;5139121;28;20125;-46
2022/08/25 12:19:48;;;;;;;2.67;2.03;;;;;;;35.58;29.44;101478.00;5147605;28;20038;-46
2022/08/25 12:22:50;;;;;;;5.88;2.35;;;;;;;35.77;29.40;101480.66;5134820;28;20429;-44
2022/08/25 12:25:40;;;;;;;5.82;2.33;;;;;;;35.83;29.30;101475.88;5145394;28;20558;-47
2022/08/25 12:28:47;;;;;;;10.43;3.22;;;;;;;35.78;28.77;101466.63;5143760;28;20041;-46
2022/08/25 12:31:52;;;;;;;14.68;2.70;;;;;;;35.71;29.66;101477.22;5143365;28;20049;-45
2022/08/25 12:35:15;;;;;;;5.10;2.25;;;;;;;35.63;30.15;101469.66;5148496;28;20065;-45